createdAt,value
2023-01-23T00:01:35.608Z,1.10
2023-01-23T00:04:04.229Z,1.10
2023-01-23T00:06:31.936Z,1.00
2023-01-23T00:08:59.442Z,1.00
2023-01-23T00:11:30.435Z,1.10
2023-01-23T00:13:59.967Z,1.10
2023-01-23T00:16:31.617Z,1.10
2023-01-23T00:18:59.623Z,1.00
2023-01-23T00:21:29.847Z,1.10
2023-01-23T00:24:00.568Z,1.10
2023-01-23T00:26:30.768Z,1.10
2023-01-23T00:28:58.304Z,1.10
2023-01-23T00:31:39.896Z,1.00
2023-01-23T00:34:12.971Z,1.00
2023-01-23T00:36:43.718Z,1.00
2023-01-23T00:39:20.494Z,1.00
2023-01-23T00:41:49.409Z,1.10
2023-01-23T00:44:17.839Z,1.00
2023-01-23T00:46:45.811Z,1.00
2023-01-23T00:49:13.456Z,1.00
2023-01-23T00:51:40.959Z,1.00
2023-01-23T00:54:08.366Z,1.00
2023-01-23T00:56:36.020Z,1.00
2023-01-23T00:59:03.538Z,1.10
2023-01-23T01:01:32.137Z,1.10
2023-01-23T01:04:00.328Z,1.10
2023-01-23T01:06:30.007Z,1.20
2023-01-23T01:08:58.724Z,1.20
2023-01-23T01:11:26.947Z,1.20
2023-01-23T01:13:54.428Z,1.20
2023-01-23T01:16:24.474Z,1.20
2023-01-23T01:18:52.340Z,1.20
2023-01-23T01:21:19.924Z,1.20
2023-01-23T01:23:47.358Z,1.20
2023-01-23T01:26:14.796Z,1.20
2023-01-23T01:28:42.505Z,1.10
2023-01-23T01:31:15.042Z,1.10
2023-01-23T01:33:44.000Z,1.10
2023-01-23T01:36:14.562Z,1.10
2023-01-23T01:38:42.711Z,1.10
2023-01-23T01:41:12.323Z,1.10
2023-01-23T01:43:39.973Z,1.10
2023-01-23T01:46:25.781Z,1.10
2023-01-23T01:49:09.911Z,1.10
2023-01-23T01:52:04.715Z,1.10
2023-01-23T01:54:39.368Z,1.10
2023-01-23T01:57:32.511Z,1.00
2023-01-23T02:00:07.782Z,1.00
2023-01-23T02:02:54.830Z,1.10
2023-01-23T02:05:30.631Z,1.10
2023-01-23T02:08:01.756Z,1.10
2023-01-23T02:10:29.406Z,1.10
2023-01-23T02:13:16.776Z,1.20
2023-01-23T02:15:44.253Z,1.10
2023-01-23T02:18:11.823Z,1.20
2023-01-23T02:20:39.879Z,1.20
2023-01-23T02:23:21.644Z,1.10
2023-01-23T02:26:15.652Z,1.20
2023-01-23T02:28:51.787Z,1.10
2023-01-23T02:31:20.459Z,1.10
2023-01-23T02:33:54.849Z,1.20
2023-01-23T02:36:27.161Z,1.20
2023-01-23T02:39:07.058Z,1.20
2023-01-23T02:41:46.642Z,1.10
2023-01-23T02:44:29.342Z,1.10
2023-01-23T02:47:05.159Z,1.20
2023-01-23T02:49:33.125Z,1.20
2023-01-23T02:52:00.845Z,1.10
2023-01-23T02:54:28.273Z,1.10
2023-01-23T02:56:57.349Z,1.10
2023-01-23T02:59:43.256Z,1.10
2023-01-23T03:02:12.227Z,1.10
2023-01-23T03:04:39.682Z,1.10
2023-01-23T03:07:07.331Z,1.10
2023-01-23T03:09:34.843Z,1.10
2023-01-23T03:12:02.963Z,1.10
2023-01-23T03:14:31.881Z,1.10
2023-01-23T03:16:59.336Z,1.10
2023-01-23T03:19:27.325Z,1.10
2023-01-23T03:21:55.055Z,1.10
2023-01-23T03:24:22.679Z,1.10
2023-01-23T03:26:52.571Z,1.10
2023-01-23T03:29:43.065Z,1.10
2023-01-23T03:32:12.873Z,1.10
2023-01-23T03:34:41.722Z,1.10
2023-01-23T03:37:11.671Z,1.00
2023-01-23T03:39:57.957Z,1.00
2023-01-23T03:42:25.681Z,1.00
2023-01-23T03:44:53.573Z,1.00
2023-01-23T03:47:21.057Z,1.00
2023-01-23T03:49:48.824Z,1.00
2023-01-23T03:52:16.261Z,1.10
2023-01-23T03:54:43.859Z,1.10
2023-01-23T03:57:11.778Z,1.10
2023-01-23T03:59:39.137Z,1.00
2023-01-23T04:02:06.706Z,1.00
2023-01-23T04:04:35.682Z,1.10
2023-01-23T04:07:04.492Z,1.10
2023-01-23T04:09:32.009Z,1.10
2023-01-23T04:12:00.482Z,1.10
2023-01-23T04:14:37.494Z,1.10
2023-01-23T04:17:08.200Z,1.10
2023-01-23T04:19:36.529Z,1.10
2023-01-23T04:22:05.143Z,1.10
2023-01-23T04:24:32.689Z,1.10
2023-01-23T04:27:00.118Z,1.10
2023-01-23T04:29:27.685Z,1.10
2023-01-23T04:31:55.242Z,1.10
2023-01-23T04:34:22.689Z,1.00
2023-01-23T04:36:50.135Z,1.00
2023-01-23T04:39:17.647Z,1.10
2023-01-23T04:41:45.214Z,1.10
2023-01-23T04:44:21.794Z,1.10
2023-01-23T04:46:53.211Z,1.10
2023-01-23T04:49:23.363Z,1.00
2023-01-23T04:51:52.197Z,0.90
2023-01-23T04:54:20.699Z,0.90
2023-01-23T04:56:49.082Z,0.90
2023-01-23T04:59:17.439Z,0.80
2023-01-23T05:01:45.287Z,0.80
2023-01-23T05:04:13.200Z,0.80
2023-01-23T05:06:40.758Z,0.80
2023-01-23T05:09:08.265Z,0.80
2023-01-23T05:11:35.808Z,0.80
2023-01-23T05:14:03.318Z,0.70
2023-01-23T05:16:30.772Z,0.80
2023-01-23T05:18:58.248Z,0.80
2023-01-23T05:21:25.673Z,0.80
2023-01-23T05:23:53.090Z,0.80
2023-01-23T05:26:20.725Z,0.80
2023-01-23T05:28:48.141Z,0.80
2023-01-23T05:31:15.590Z,0.80
2023-01-23T05:33:43.080Z,0.80
2023-01-23T05:36:10.690Z,0.70
2023-01-23T05:38:38.116Z,0.70
2023-01-23T05:41:05.676Z,0.80
2023-01-23T05:43:33.121Z,0.80
2023-01-23T05:46:01.852Z,0.80
2023-01-23T05:48:29.433Z,0.80
2023-01-23T05:50:56.914Z,0.80
2023-01-23T05:53:24.722Z,0.90
2023-01-23T05:55:52.229Z,0.90
2023-01-23T05:58:19.741Z,0.90
2023-01-23T06:00:47.158Z,0.90
2023-01-23T06:03:14.713Z,0.90
2023-01-23T06:05:42.227Z,0.80
2023-01-23T06:08:09.596Z,0.90
2023-01-23T06:10:40.976Z,0.80
2023-01-23T06:13:08.427Z,0.90
2023-01-23T06:15:35.834Z,0.80
2023-01-23T06:18:03.429Z,0.80
2023-01-23T06:20:30.904Z,0.90
2023-01-23T06:22:58.334Z,0.80
2023-01-23T06:25:25.795Z,0.80
2023-01-23T06:27:54.960Z,0.80
2023-01-23T06:30:22.906Z,0.80
2023-01-23T06:32:50.415Z,0.80
2023-01-23T06:35:18.256Z,0.70
2023-01-23T06:37:45.987Z,0.70
2023-01-23T06:40:14.482Z,0.80
2023-01-23T06:42:43.113Z,0.80
2023-01-23T06:45:12.229Z,0.80
2023-01-23T06:47:39.637Z,0.80
2023-01-23T06:50:07.799Z,0.70
2023-01-23T06:52:35.243Z,0.70
2023-01-23T06:55:02.762Z,0.70
2023-01-23T06:57:30.198Z,0.70
2023-01-23T06:59:57.671Z,0.80
2023-01-23T07:02:25.527Z,0.80
2023-01-23T07:04:53.308Z,0.80
2023-01-23T07:07:20.777Z,0.80
2023-01-23T07:09:48.241Z,0.80
2023-01-23T07:12:15.843Z,0.90
2023-01-23T07:14:43.304Z,0.90
2023-01-23T07:17:10.738Z,0.90
2023-01-23T07:19:38.188Z,0.90
2023-01-23T07:22:05.594Z,0.90
2023-01-23T07:24:33.229Z,0.90
2023-01-23T07:27:00.770Z,0.90
2023-01-23T07:29:28.151Z,0.90
2023-01-23T07:31:55.630Z,0.90
2023-01-23T07:34:23.137Z,0.90
2023-01-23T07:36:50.545Z,0.90
2023-01-23T07:39:17.999Z,0.90
2023-01-23T07:41:46.453Z,1.00
2023-01-23T07:44:20.300Z,1.00
2023-01-23T07:46:49.337Z,1.00
2023-01-23T07:49:16.913Z,1.10
2023-01-23T07:51:44.713Z,1.10
2023-01-23T07:54:12.257Z,1.10
2023-01-23T07:56:39.779Z,1.10
2023-01-23T07:59:07.247Z,1.10
2023-01-23T08:01:34.716Z,1.20
2023-01-23T08:04:02.195Z,1.20
2023-01-23T08:06:29.721Z,1.20
2023-01-23T08:08:57.635Z,1.30
2023-01-23T08:11:26.708Z,1.30
2023-01-23T08:13:54.349Z,1.30
2023-01-23T08:16:22.011Z,1.20
2023-01-23T08:18:49.596Z,1.20
2023-01-23T08:21:17.267Z,1.20
2023-01-23T08:23:46.512Z,1.20
2023-01-23T08:26:17.497Z,1.20
2023-01-23T08:28:46.149Z,1.20
2023-01-23T08:31:14.867Z,1.20
2023-01-23T08:33:42.570Z,1.30
2023-01-23T08:36:13.189Z,1.30
2023-01-23T08:38:41.018Z,1.20
2023-01-23T08:41:11.793Z,1.10
2023-01-23T08:43:41.699Z,1.20
2023-01-23T08:46:10.446Z,1.10
2023-01-23T08:48:38.386Z,1.20
2023-01-23T08:51:13.040Z,1.10
2023-01-23T08:53:42.221Z,1.10
2023-01-23T08:56:16.963Z,1.20
2023-01-23T08:58:45.554Z,1.20
2023-01-23T09:01:15.614Z,1.20
2023-01-23T09:03:43.112Z,1.20
2023-01-23T09:06:12.352Z,1.20
2023-01-23T09:08:39.918Z,1.20
2023-01-23T09:11:09.707Z,1.30
2023-01-23T09:13:37.879Z,1.30
2023-01-23T09:16:10.253Z,1.40
2023-01-23T09:18:38.333Z,1.40
2023-01-23T09:21:13.775Z,1.40
2023-01-23T09:23:42.044Z,1.40
2023-01-23T09:26:12.737Z,1.30
2023-01-23T09:28:42.999Z,1.30
2023-01-23T09:31:13.450Z,1.40
2023-01-23T09:33:41.436Z,1.40
2023-01-23T09:36:10.152Z,1.50
2023-01-23T09:38:38.003Z,1.50
2023-01-23T09:41:24.542Z,1.40
2023-01-23T09:44:15.817Z,1.50
2023-01-23T09:47:02.761Z,1.50
2023-01-23T09:49:58.736Z,1.50
2023-01-23T09:52:32.900Z,1.40
2023-01-23T09:55:21.748Z,1.40
2023-01-23T09:57:57.416Z,1.50
2023-01-23T10:00:30.227Z,1.50
2023-01-23T10:02:59.251Z,1.60
2023-01-23T10:05:39.660Z,1.50
2023-01-23T10:08:45.184Z,1.50
2023-01-23T10:12:15.513Z,1.60
2023-01-23T10:15:08.343Z,1.60
2023-01-23T10:18:02.731Z,1.60
2023-01-23T10:21:06.784Z,1.60
2023-01-23T10:23:59.782Z,1.60
2023-01-23T10:26:42.612Z,1.70
2023-01-23T10:29:31.148Z,1.80
2023-01-23T10:32:03.973Z,1.90
2023-01-23T10:34:56.125Z,1.80
2023-01-23T10:37:41.077Z,1.80
2023-01-23T10:40:18.661Z,1.80
2023-01-23T10:42:47.988Z,1.80
2023-01-23T10:45:20.567Z,1.80
2023-01-23T10:47:54.720Z,1.80
2023-01-23T10:50:39.773Z,1.80
2023-01-23T10:53:19.890Z,1.90
2023-01-23T10:55:48.529Z,1.90
2023-01-23T10:58:37.114Z,2.00
2023-01-23T11:01:06.496Z,2.00
2023-01-23T11:03:36.129Z,2.00
2023-01-23T11:06:08.582Z,2.00
2023-01-23T11:08:38.584Z,1.90
2023-01-23T11:11:22.944Z,2.00
2023-01-23T11:14:09.097Z,2.00
2023-01-23T11:16:36.877Z,1.90
2023-01-23T11:19:10.090Z,1.90
2023-01-23T11:22:00.855Z,1.90
2023-01-23T11:24:41.038Z,1.80
2023-01-23T11:27:19.611Z,1.80
2023-01-23T11:30:01.739Z,1.80
2023-01-23T11:32:33.567Z,1.90
2023-01-23T11:35:34.361Z,2.00
2023-01-23T11:38:04.283Z,2.00
2023-01-23T11:40:31.901Z,1.90
2023-01-23T11:42:59.361Z,1.90
2023-01-23T11:45:55.740Z,2.00
2023-01-23T11:48:56.723Z,1.90
2023-01-23T11:51:36.138Z,1.80
2023-01-23T11:54:27.985Z,1.70
2023-01-23T11:57:29.439Z,1.70
2023-01-23T12:00:18.000Z,1.70
2023-01-23T12:03:03.391Z,1.80
2023-01-23T12:09:16.058Z,1.80
2023-01-23T12:11:56.404Z,1.80
2023-01-23T12:14:46.793Z,1.80
2023-01-23T12:17:16.887Z,1.80
2023-01-23T12:20:02.816Z,1.80
2023-01-23T12:22:55.156Z,1.90
2023-01-23T12:25:40.780Z,1.90
2023-01-23T12:28:57.301Z,1.80
2023-01-23T12:31:45.232Z,1.80
2023-01-23T12:34:45.803Z,1.80
2023-01-23T12:37:50.407Z,1.80
2023-01-23T12:41:02.586Z,1.80
2023-01-23T12:44:06.773Z,1.90
2023-01-23T12:46:42.315Z,1.90
2023-01-23T12:49:28.614Z,1.90
2023-01-23T12:52:09.610Z,1.90
2023-01-23T12:54:52.287Z,1.90
2023-01-23T12:57:52.435Z,1.80
2023-01-23T13:00:44.062Z,1.80
2023-01-23T13:04:12.064Z,1.70
2023-01-23T13:06:57.569Z,1.70
2023-01-23T13:10:21.996Z,1.70
2023-01-23T13:12:54.770Z,1.60
2023-01-23T13:15:39.877Z,1.60
2023-01-23T13:18:25.393Z,1.60
2023-01-23T13:21:19.182Z,1.50
2023-01-23T13:23:46.683Z,1.50
2023-01-23T13:26:16.941Z,1.50
2023-01-23T13:28:55.450Z,1.50
2023-01-23T13:31:41.116Z,1.50
2023-01-23T13:34:17.735Z,1.50
2023-01-23T13:36:50.204Z,1.50
2023-01-23T13:39:17.686Z,1.50
2023-01-23T13:42:14.477Z,1.50
2023-01-23T13:45:27.663Z,1.50
2023-01-23T14:20:41.327Z,1.20
2023-01-23T14:23:40.989Z,1.10
2023-01-23T14:26:16.236Z,1.10
2023-01-23T14:29:07.225Z,1.10
2023-01-23T14:31:37.175Z,1.10
2023-01-23T14:34:17.650Z,1.10
2023-01-23T14:37:04.904Z,1.10
2023-01-23T14:39:35.618Z,1.10
2023-01-23T14:42:06.546Z,1.10
2023-01-23T14:44:41.431Z,1.10
2023-01-23T14:47:34.642Z,1.10
2023-01-23T14:50:04.029Z,1.00
2023-01-23T14:52:32.131Z,1.10
2023-01-23T14:55:07.748Z,1.00
2023-01-23T14:57:36.849Z,1.00
2023-01-23T15:00:05.599Z,1.00
2023-01-23T15:02:36.847Z,1.00
2023-01-23T15:05:13.842Z,1.00
2023-01-23T15:07:57.148Z,1.00
2023-01-23T15:10:43.595Z,1.00
2023-01-23T15:13:25.985Z,1.00
2023-01-23T15:16:00.248Z,1.00
2023-01-23T15:18:31.835Z,1.00
2023-01-23T15:21:03.229Z,1.00
2023-01-23T15:23:41.573Z,1.00
2023-01-23T15:26:18.827Z,1.00
2023-01-23T15:28:51.944Z,1.00
2023-01-23T15:31:30.304Z,1.00
2023-01-23T15:34:16.974Z,1.00
2023-01-23T15:37:05.575Z,1.00
2023-01-23T15:40:02.683Z,1.00
2023-01-23T15:42:35.576Z,1.00
2023-01-23T15:45:07.034Z,1.10
2023-01-23T15:47:35.476Z,1.10
2023-01-23T15:50:03.304Z,1.00
2023-01-23T15:52:52.544Z,1.00
2023-01-23T15:55:23.427Z,1.00
2023-01-23T15:57:53.059Z,1.00
2023-01-23T16:00:27.346Z,1.00
2023-01-23T16:02:57.680Z,1.00
2023-01-23T16:05:36.663Z,1.00
2023-01-23T16:08:09.554Z,1.00
2023-01-23T16:10:39.280Z,1.00
2023-01-23T16:13:08.016Z,1.00
2023-01-23T16:15:37.342Z,1.00
2023-01-23T16:18:04.907Z,0.90
2023-01-23T16:20:40.014Z,0.90
2023-01-23T16:23:25.934Z,0.90
2023-01-23T16:25:54.419Z,0.90
2023-01-23T16:28:26.070Z,0.90
2023-01-23T16:30:53.970Z,1.00
2023-01-23T16:33:22.193Z,0.90
2023-01-23T16:35:51.642Z,1.00
2023-01-23T16:38:28.713Z,0.90
2023-01-23T16:40:59.735Z,0.90
2023-01-23T16:43:27.986Z,1.00
2023-01-23T16:45:56.848Z,1.00
2023-01-23T16:48:28.763Z,1.00
2023-01-23T16:51:08.410Z,1.00
2023-01-23T16:53:44.125Z,1.00
2023-01-23T16:56:46.293Z,1.00
2023-01-23T16:59:21.573Z,1.00
2023-01-23T17:01:51.838Z,1.00
2023-01-23T17:04:21.708Z,1.00
2023-01-23T17:06:50.095Z,1.00
2023-01-23T17:09:17.940Z,1.00
2023-01-23T17:11:49.487Z,1.00
2023-01-23T17:14:30.498Z,1.00
2023-01-23T17:17:08.705Z,1.00
2023-01-23T17:19:41.750Z,1.00
2023-01-23T17:22:28.180Z,1.00
2023-01-23T17:24:55.564Z,1.00
2023-01-23T17:27:23.010Z,1.00
2023-01-23T17:29:50.694Z,1.00
2023-01-23T17:32:35.568Z,1.00
2023-01-23T17:35:08.182Z,1.00
2023-01-23T17:37:36.332Z,0.90
2023-01-23T17:40:04.389Z,1.00
2023-01-23T17:42:32.058Z,1.00
2023-01-23T17:44:59.510Z,1.00
2023-01-23T17:47:34.422Z,1.00
2023-01-23T17:50:03.248Z,1.00
2023-01-23T17:52:31.230Z,1.00
2023-01-23T17:54:58.627Z,1.00
2023-01-23T17:57:26.192Z,1.00
2023-01-23T17:59:55.671Z,1.00
2023-01-23T18:02:29.052Z,1.00
2023-01-23T18:04:56.798Z,1.00
2023-01-23T18:07:24.334Z,1.00
2023-01-23T18:09:54.084Z,1.00
2023-01-23T18:12:48.147Z,1.00
2023-01-23T18:15:37.233Z,1.00
2023-01-23T18:18:04.588Z,1.00
2023-01-23T18:20:33.785Z,1.00
2023-01-23T18:23:01.715Z,1.00
2023-01-23T18:25:31.276Z,1.00
2023-01-23T18:28:08.768Z,1.00
2023-01-23T18:31:08.796Z,1.00
2023-01-23T18:34:03.006Z,1.00
2023-01-23T18:37:00.624Z,0.90
2023-01-23T18:40:05.742Z,0.90
2023-01-23T18:42:42.910Z,0.90
2023-01-23T18:45:20.739Z,0.90
2023-01-23T18:47:54.935Z,0.90
2023-01-23T18:50:23.466Z,0.90
2023-01-23T18:53:20.312Z,0.90
2023-01-23T18:56:14.386Z,0.90
2023-01-23T18:59:20.243Z,0.90
2023-01-23T19:01:54.324Z,0.90
2023-01-23T19:04:34.730Z,0.90
2023-01-23T19:07:02.600Z,0.90
2023-01-23T19:09:34.791Z,0.90
2023-01-23T19:12:48.943Z,0.90
2023-01-23T19:15:40.753Z,0.90
2023-01-23T19:18:45.871Z,0.90
2023-01-23T19:21:23.721Z,0.90
2023-01-23T19:24:03.250Z,0.90
2023-01-23T19:26:34.921Z,1.00
2023-01-23T19:29:19.983Z,1.00
2023-01-23T19:32:03.569Z,1.00
2023-01-23T19:34:33.240Z,1.00
2023-01-23T19:37:00.684Z,1.00
2023-01-23T19:39:28.113Z,1.00
2023-01-23T19:41:55.664Z,1.00
2023-01-23T19:44:24.956Z,1.00
2023-01-23T19:46:52.982Z,1.00
2023-01-23T19:49:20.575Z,1.00
2023-01-23T19:51:48.523Z,1.00
2023-01-23T19:54:16.701Z,1.00
2023-01-23T19:56:44.084Z,1.00
2023-01-23T19:59:11.766Z,1.00
2023-01-23T20:01:47.466Z,1.00
2023-01-23T20:04:21.480Z,1.00
2023-01-23T20:06:52.033Z,1.00
2023-01-23T20:09:20.257Z,1.00
2023-01-23T20:11:48.295Z,1.00
2023-01-23T20:14:16.070Z,1.00
2023-01-23T20:16:43.807Z,1.10
2023-01-23T20:19:15.745Z,1.10
2023-01-23T20:21:43.999Z,1.10
2023-01-23T20:24:11.762Z,1.10
2023-01-23T20:26:40.445Z,1.10
2023-01-23T20:29:11.951Z,1.10
2023-01-23T20:31:39.616Z,1.10
2023-01-23T20:34:07.587Z,1.10
2023-01-23T20:36:35.056Z,1.10
2023-01-23T20:39:03.819Z,1.00
2023-01-23T20:41:31.351Z,1.00
2023-01-23T20:43:58.860Z,1.00
2023-01-23T20:46:27.038Z,1.00
2023-01-23T20:48:54.491Z,1.00
2023-01-23T20:51:22.385Z,1.00
2023-01-23T20:53:50.483Z,1.00
2023-01-23T20:56:27.675Z,1.00
2023-01-23T20:59:15.076Z,1.00
2023-01-23T21:02:06.744Z,1.00
2023-01-23T21:04:36.824Z,1.00
2023-01-23T21:07:04.988Z,0.90
2023-01-23T21:09:32.629Z,0.90
2023-01-23T21:12:00.154Z,0.80
2023-01-23T21:14:27.750Z,0.80
2023-01-23T21:16:55.375Z,0.80
2023-01-23T21:19:22.811Z,0.80
2023-01-23T21:21:50.348Z,0.90
2023-01-23T21:24:17.974Z,0.90
2023-01-23T21:26:45.562Z,0.90
2023-01-23T21:29:13.064Z,0.90
2023-01-23T21:31:40.847Z,0.90
2023-01-23T21:34:14.910Z,1.00
2023-01-23T21:36:43.563Z,1.00
2023-01-23T21:39:14.611Z,1.00
2023-01-23T21:41:42.566Z,0.90
2023-01-23T21:44:11.401Z,0.90
2023-01-23T21:46:39.016Z,0.90
2023-01-23T21:49:06.559Z,0.90
2023-01-23T21:51:34.144Z,0.90
2023-01-23T21:54:01.723Z,0.90
2023-01-23T21:56:29.274Z,0.90
2023-01-23T21:58:56.652Z,0.80
2023-01-23T22:01:32.678Z,0.90
2023-01-23T22:04:10.027Z,0.80
2023-01-23T22:06:40.741Z,0.90
2023-01-23T22:09:10.480Z,0.90
2023-01-23T22:11:37.994Z,0.90
2023-01-23T22:14:05.521Z,0.90
2023-01-23T22:16:47.359Z,0.90
2023-01-23T22:19:17.886Z,0.90
2023-01-23T22:21:46.895Z,0.90
2023-01-23T22:24:15.406Z,0.90
2023-01-23T22:26:43.675Z,0.90
2023-01-23T22:29:13.357Z,0.90
2023-01-23T22:31:41.331Z,1.00
2023-01-23T22:34:09.156Z,1.00
2023-01-23T22:36:36.658Z,0.90
2023-01-23T22:39:04.250Z,0.90
2023-01-23T22:41:32.115Z,0.90
2023-01-23T22:43:59.632Z,0.90
2023-01-23T22:46:28.487Z,0.90
2023-01-23T22:48:55.970Z,0.90
2023-01-23T22:51:27.610Z,0.90
2023-01-23T22:53:56.946Z,0.90
2023-01-23T22:56:26.631Z,0.90
2023-01-23T22:58:56.435Z,0.80
2023-01-23T23:01:27.293Z,0.90
2023-01-23T23:03:58.056Z,0.80
2023-01-23T23:06:26.123Z,0.90
2023-01-23T23:08:53.848Z,0.90
2023-01-23T23:11:27.659Z,0.90
2023-01-23T23:13:57.839Z,0.90
2023-01-23T23:16:31.134Z,0.90
2023-01-23T23:19:02.429Z,0.90
2023-01-23T23:21:35.797Z,0.90
2023-01-23T23:24:07.290Z,0.90
2023-01-23T23:26:35.172Z,0.90
2023-01-23T23:29:03.083Z,0.90
2023-01-23T23:31:31.109Z,0.90
2023-01-23T23:33:58.969Z,0.90
2023-01-23T23:36:26.797Z,1.00
2023-01-23T23:38:54.367Z,0.90
2023-01-23T23:41:21.915Z,1.00
2023-01-23T23:43:49.389Z,1.00
2023-01-23T23:46:17.381Z,1.00
2023-01-23T23:48:46.344Z,1.00
2023-01-23T23:51:16.566Z,0.90
2023-01-23T23:53:44.051Z,0.90
2023-01-23T23:56:21.644Z,1.00
2023-01-23T23:58:49.322Z,0.90
